This is the latest recevied weather packets stored in our database for station/object W4UWO. If no packets are shown the sender has not sent any weather packets the latest 10 day(s).
| Time | Temp. | Humidity | Pressure | Rain* | Wind** | Luminosity | Snow |
|---|---|---|---|---|---|---|---|
| 1788096049 | 26.11° C | 76% | 1022 hPa | 0 mm | - | 91 W/m² | - |
| 1788095748 | 25.56° C | 77% | 1022 hPa | 0 mm | - | 90 W/m² | - |
| 1788095443 | 24.44° C | 80% | 1022 hPa | 0 mm | - | 88 W/m² | - |
| 1788095138 | 23.89° C | 81% | 1022 hPa | 0 mm | - | 88 W/m² | - |
| 1788094834 | 23.89° C | 82% | 1021.9 hPa | 0 mm | - | 104 W/m² | - |
| 1788094528 | 23.89° C | 81% | 1022.1 hPa | 0 mm | - | 153 W/m² | - |
| 1788094227 | 24.44° C | 79% | 1021.9 hPa | 0 mm | - | 140 W/m² | - |
| 1788093926 | 23.89° C | 79% | 1021.9 hPa | 0 mm | - | 130 W/m² | - |
| 1788093622 | 23.33° C | 81% | 1021.8 hPa | 0 mm | - | 117 W/m² | - |
| 1788093319 | 22.78° C | 83% | 1021.9 hPa | 0 mm | - | 106 W/m² | - |
| 1788093014 | 22.78° C | 82% | 1021.6 hPa | 0 mm | - | 93 W/m² | - |
| 1788092711 | 22.78° C | 83% | 1021.6 hPa | 0 mm | - | 85 W/m² | - |
| 1788092406 | 22.78° C | 83% | 1021.6 hPa | 0 mm | - | 77 W/m² | - |
| 1788092102 | 22.22° C | 85% | 1021.5 hPa | 0 mm | - | 72 W/m² | - |
| 1788091801 | 21.67° C | 87% | 1021.6 hPa | 0 mm | - | 64 W/m² | - |
| 1788091496 | 20.56° C | 91% | 1021.5 hPa | 0 mm | - | 54 W/m² | - |
| 1788091193 | 20° C | 93% | 1021.5 hPa | 0 mm | - | 44 W/m² | - |
| 1788090889 | 20° C | 93% | 1021.6 hPa | 0 mm | - | 30 W/m² | - |
| 1788090584 | 20° C | 93% | 1021.3 hPa | 0 mm | - | 26 W/m² | - |
| 1788090281 | 19.44° C | 94% | 1021.3 hPa | 0 mm | - | 22 W/m² | - |
| 1788089981 | 19.44° C | 93% | 1021.2 hPa | 0 mm | - | 17 W/m² | - |
| 1788089676 | 19.44° C | 93% | 1021.2 hPa | 0 mm | - | 13 W/m² | - |
| 1788089371 | 19.44° C | 93% | 1021.2 hPa | 0 mm | - | 10 W/m² | - |
| 1788089067 | 19.44° C | 93% | 1021.2 hPa | 0 mm | - | 7 W/m² | - |
| 1788088763 | 19.44° C | 93% | 1021 hPa | 0 mm | - | 4 W/m² | - |
* Rain latest hour (hover to see other rain measurements)
** Current wind speed in m/s (hover to see current wind gust speed)